createdAt,value
2023-05-23T00:01:59.032Z,16.70
2023-05-23T00:04:31.496Z,16.61
2023-05-23T00:07:08.269Z,16.62
2023-05-23T00:09:40.645Z,16.61
2023-05-23T00:12:12.715Z,16.64
2023-05-23T00:14:45.519Z,16.58
2023-05-23T00:17:17.797Z,16.54
2023-05-23T00:19:50.008Z,16.56
2023-05-23T00:22:22.427Z,16.63
2023-05-23T00:24:55.101Z,16.53
2023-05-23T00:27:27.153Z,16.50
2023-05-23T00:29:59.252Z,16.55
2023-05-23T00:32:31.391Z,16.54
2023-05-23T00:35:03.976Z,16.55
2023-05-23T00:37:36.094Z,16.59
2023-05-23T00:40:08.909Z,16.60
2023-05-23T00:42:40.997Z,16.62
2023-05-23T00:45:13.142Z,16.60
2023-05-23T00:47:54.526Z,16.56
2023-05-23T00:50:30.878Z,16.51
2023-05-23T00:53:03.149Z,16.48
2023-05-23T00:55:35.442Z,16.46
2023-05-23T00:58:07.519Z,16.52
2023-05-23T01:00:39.664Z,16.45
2023-05-23T01:03:18.476Z,16.42
2023-05-23T01:05:51.757Z,16.47
2023-05-23T01:08:23.886Z,16.54
2023-05-23T01:11:02.942Z,16.52
2023-05-23T01:13:45.194Z,16.43
2023-05-23T01:16:33.616Z,16.42
2023-05-23T01:19:42.729Z,16.45
2023-05-23T01:23:25.498Z,16.43
2023-05-23T01:26:19.870Z,16.38
2023-05-23T01:29:03.440Z,16.41
2023-05-23T01:31:38.261Z,16.46
2023-05-23T01:34:12.852Z,16.51
2023-05-23T01:36:45.464Z,16.47
2023-05-23T01:39:17.752Z,16.52
2023-05-23T01:41:51.665Z,16.36
2023-05-23T01:44:23.789Z,16.24
2023-05-23T01:46:55.977Z,16.33
2023-05-23T01:49:28.453Z,16.44
2023-05-23T01:52:02.148Z,16.45
2023-05-23T01:54:35.671Z,16.48
2023-05-23T01:57:07.780Z,16.54
2023-05-23T01:59:39.946Z,16.54
2023-05-23T02:02:12.259Z,16.56
2023-05-23T02:04:44.435Z,16.38
2023-05-23T02:07:16.538Z,16.32
2023-05-23T02:09:49.011Z,16.31
2023-05-23T02:12:21.235Z,16.35
2023-05-23T02:14:55.499Z,16.40
2023-05-23T02:17:27.820Z,16.46
2023-05-23T02:19:59.963Z,16.48
2023-05-23T02:22:32.172Z,16.33
2023-05-23T02:25:04.872Z,16.41
2023-05-23T02:27:36.975Z,16.47
2023-05-23T02:30:09.746Z,16.51
2023-05-23T02:32:41.871Z,16.53
2023-05-23T02:35:14.308Z,16.59
2023-05-23T02:37:46.381Z,16.57
2023-05-23T02:40:18.468Z,16.54
2023-05-23T02:42:51.833Z,16.49
2023-05-23T02:45:24.754Z,16.46
2023-05-23T02:47:56.914Z,16.45
2023-05-23T02:50:29.079Z,16.41
2023-05-23T02:53:01.163Z,16.42
2023-05-23T02:55:33.416Z,16.46
2023-05-23T02:58:06.020Z,16.49
2023-05-23T03:00:44.022Z,16.36
2023-05-23T03:03:17.260Z,16.37
2023-05-23T03:05:50.043Z,16.41
2023-05-23T03:08:22.380Z,16.43
2023-05-23T03:10:54.678Z,16.48
2023-05-23T03:13:36.376Z,16.41
2023-05-23T03:16:08.715Z,16.41
2023-05-23T03:18:42.362Z,16.36
2023-05-23T03:21:14.998Z,16.13
2023-05-23T03:23:47.503Z,15.96
2023-05-23T03:26:23.287Z,15.80
2023-05-23T03:28:56.396Z,15.68
2023-05-23T03:31:28.857Z,15.68
2023-05-23T03:34:01.415Z,15.58
2023-05-23T03:36:34.527Z,15.54
2023-05-23T03:39:07.121Z,15.50
2023-05-23T03:41:39.439Z,15.49
2023-05-23T03:44:15.015Z,15.47
2023-05-23T03:46:47.518Z,15.40
2023-05-23T03:49:50.580Z,15.26
2023-05-23T03:52:23.554Z,15.18
2023-05-23T03:54:55.758Z,15.25
2023-05-23T03:57:29.339Z,15.21
2023-05-23T04:00:01.789Z,15.26
2023-05-23T04:02:34.205Z,15.27
2023-05-23T04:05:07.429Z,15.33
2023-05-23T04:07:40.475Z,15.30
2023-05-23T04:10:12.913Z,15.34
2023-05-23T04:13:05.548Z,15.34
2023-05-23T04:15:38.000Z,15.40
2023-05-23T04:18:10.761Z,15.28
2023-05-23T04:20:43.203Z,15.33
2023-05-23T04:23:46.206Z,15.33
2023-05-23T04:26:20.941Z,15.32
2023-05-23T04:28:54.573Z,15.32
2023-05-23T04:31:27.277Z,15.23
2023-05-23T04:33:59.615Z,15.27
2023-05-23T04:36:31.905Z,15.29
2023-05-23T04:39:11.478Z,15.24
2023-05-23T04:41:45.579Z,15.21
2023-05-23T04:44:21.274Z,15.26
2023-05-23T04:46:54.143Z,15.30
2023-05-23T04:49:27.191Z,15.30
2023-05-23T04:51:59.589Z,15.35
2023-05-23T04:54:31.884Z,15.35
2023-05-23T04:57:04.441Z,15.37
2023-05-23T04:59:39.660Z,15.42
2023-05-23T05:02:19.578Z,15.37
2023-05-23T05:04:52.034Z,15.20
2023-05-23T05:07:27.364Z,15.16
2023-05-23T05:10:01.268Z,15.12
2023-05-23T05:12:34.666Z,14.97
2023-05-23T05:15:08.185Z,14.91
2023-05-23T05:17:40.950Z,14.86
2023-05-23T05:20:13.430Z,14.77
2023-05-23T05:22:57.954Z,14.78
2023-05-23T05:25:32.583Z,14.69
2023-05-23T05:28:07.854Z,14.77
2023-05-23T05:30:40.526Z,14.82
2023-05-23T05:33:14.968Z,14.80
2023-05-23T05:35:47.530Z,14.77
2023-05-23T05:38:20.544Z,14.64
2023-05-23T05:40:55.027Z,14.46
2023-05-23T05:43:27.430Z,14.45
2023-05-23T05:45:59.782Z,14.41
2023-05-23T05:48:32.450Z,14.42
2023-05-23T05:51:05.149Z,14.32
2023-05-23T05:53:37.614Z,14.30
2023-05-23T05:56:09.909Z,14.38
2023-05-23T05:58:45.283Z,14.42
2023-05-23T06:01:18.089Z,14.48
2023-05-23T06:03:50.588Z,14.34
2023-05-23T06:06:22.960Z,14.38
2023-05-23T06:08:55.291Z,14.42
2023-05-23T06:11:28.270Z,14.49
2023-05-23T06:14:00.785Z,14.44
2023-05-23T06:16:38.171Z,14.37
2023-05-23T06:19:10.684Z,14.35
2023-05-23T06:21:42.959Z,14.36
2023-05-23T06:24:18.739Z,14.15
2023-05-23T06:26:51.104Z,14.15
2023-05-23T06:29:23.555Z,14.11
2023-05-23T06:31:56.122Z,14.11
2023-05-23T06:34:28.613Z,14.13
2023-05-23T06:37:00.978Z,14.15
2023-05-23T06:39:33.353Z,14.06
2023-05-23T06:42:06.197Z,14.12
2023-05-23T06:44:38.900Z,14.10
2023-05-23T06:47:11.262Z,14.05
2023-05-23T06:49:43.536Z,14.13
2023-05-23T06:52:15.778Z,14.03
2023-05-23T06:54:48.121Z,14.04
2023-05-23T06:57:20.477Z,13.98
2023-05-23T06:59:55.580Z,14.08
2023-05-23T07:02:27.845Z,14.05
2023-05-23T07:05:00.371Z,13.94
2023-05-23T07:07:32.815Z,14.04
2023-05-23T07:10:05.621Z,14.19
2023-05-23T07:12:37.938Z,14.27
2023-05-23T07:15:18.605Z,14.05
2023-05-23T07:17:51.015Z,14.00
2023-05-23T07:20:23.378Z,14.02
2023-05-23T07:22:56.032Z,13.99
2023-05-23T07:25:28.453Z,13.92
2023-05-23T07:28:01.035Z,13.85
2023-05-23T07:30:33.492Z,13.79
2023-05-23T07:33:05.892Z,13.80
2023-05-23T07:35:38.206Z,13.70
2023-05-23T07:38:10.663Z,13.86
2023-05-23T07:40:43.231Z,13.76
2023-05-23T07:43:15.681Z,13.73
2023-05-23T07:45:50.860Z,13.83
2023-05-23T07:48:23.105Z,13.73
2023-05-23T07:50:55.808Z,13.70
2023-05-23T07:53:28.086Z,13.59
2023-05-23T07:56:00.320Z,13.53
2023-05-23T07:58:32.620Z,13.52
2023-05-23T08:01:05.161Z,13.40
2023-05-23T08:03:37.823Z,13.55
2023-05-23T08:06:10.477Z,13.64
2023-05-23T08:08:44.048Z,13.67
2023-05-23T08:11:16.506Z,13.78
2023-05-23T08:13:48.959Z,13.69
2023-05-23T08:16:21.970Z,13.67
2023-05-23T08:18:54.515Z,13.60
2023-05-23T08:21:27.093Z,13.40
2023-05-23T08:23:59.796Z,13.39
2023-05-23T08:26:35.178Z,13.35
2023-05-23T08:29:07.647Z,13.39
2023-05-23T08:31:39.942Z,13.33
2023-05-23T08:34:12.949Z,13.28
2023-05-23T08:36:45.432Z,13.19
2023-05-23T08:39:17.895Z,13.30
2023-05-23T08:41:50.964Z,13.22
2023-05-23T08:44:23.438Z,13.10
2023-05-23T08:46:58.705Z,13.17
2023-05-23T08:49:32.093Z,13.32
2023-05-23T08:52:04.944Z,13.27
2023-05-23T08:54:37.536Z,13.45
2023-05-23T08:57:11.973Z,13.39
2023-05-23T08:59:44.605Z,13.33
2023-05-23T09:02:17.298Z,13.45
2023-05-23T09:04:49.661Z,13.45
2023-05-23T09:07:21.733Z,13.47
2023-05-23T09:09:53.937Z,13.33
2023-05-23T09:12:26.204Z,13.43
2023-05-23T09:14:58.339Z,13.46
2023-05-23T09:17:34.992Z,13.49
2023-05-23T09:20:18.491Z,13.44
2023-05-23T09:22:50.742Z,13.36
2023-05-23T09:25:22.960Z,13.36
2023-05-23T09:27:56.807Z,13.35
2023-05-23T09:30:35.296Z,13.36
2023-05-23T09:33:08.735Z,13.43
2023-05-23T09:35:46.462Z,13.56
2023-05-23T09:38:19.921Z,13.62
2023-05-23T09:40:58.140Z,13.66
2023-05-23T09:43:30.570Z,13.75
2023-05-23T09:46:11.475Z,13.69
2023-05-23T09:48:52.411Z,13.90
2023-05-23T09:51:24.836Z,13.99
2023-05-23T09:53:57.206Z,13.63
2023-05-23T09:56:29.802Z,13.75
2023-05-23T09:59:03.272Z,13.74
2023-05-23T10:01:36.017Z,13.80
2023-05-23T10:04:09.597Z,14.01
2023-05-23T10:06:43.288Z,14.24
2023-05-23T10:09:20.436Z,14.18
2023-05-23T10:12:45.231Z,14.09
2023-05-23T10:15:19.377Z,14.31
2023-05-23T10:18:04.418Z,14.49
2023-05-23T10:20:40.971Z,14.62
2023-05-23T10:23:13.878Z,14.82
2023-05-23T10:25:46.434Z,14.95
2023-05-23T10:28:18.869Z,14.97
2023-05-23T10:30:51.508Z,15.23
2023-05-23T10:33:27.063Z,15.26
2023-05-23T10:36:26.021Z,15.22
2023-05-23T10:39:14.122Z,14.86
2023-05-23T10:42:42.270Z,14.81
2023-05-23T10:45:24.889Z,15.07
2023-05-23T10:47:57.208Z,15.20
2023-05-23T10:50:36.002Z,15.15
2023-05-23T10:53:11.508Z,16.15
2023-05-23T10:55:49.652Z,16.84
2023-05-23T10:58:23.442Z,17.14
2023-05-23T11:01:02.682Z,16.67
2023-05-23T11:03:47.187Z,16.28
2023-05-23T11:06:45.162Z,16.28
2023-05-23T11:09:19.731Z,16.20
2023-05-23T11:12:05.955Z,16.27
2023-05-23T11:14:40.893Z,16.89
2023-05-23T11:17:13.222Z,17.14
2023-05-23T11:20:17.229Z,16.82
2023-05-23T11:23:12.374Z,16.68
2023-05-23T11:25:52.315Z,16.36
2023-05-23T11:28:25.281Z,16.34
2023-05-23T11:30:57.880Z,16.11
2023-05-23T11:33:31.285Z,16.12
2023-05-23T11:36:05.078Z,16.19
2023-05-23T11:38:37.280Z,16.02
2023-05-23T11:41:09.373Z,15.96
2023-05-23T11:43:53.402Z,15.87
2023-05-23T11:46:25.873Z,15.68
2023-05-23T11:48:58.257Z,15.72
2023-05-23T11:51:30.389Z,16.13
2023-05-23T11:54:02.538Z,16.12
2023-05-23T11:56:40.921Z,15.84
2023-05-23T11:59:13.243Z,16.42
2023-05-23T12:01:50.755Z,16.30
2023-05-23T12:04:23.322Z,16.30
2023-05-23T12:06:55.838Z,16.29
2023-05-23T12:09:28.099Z,16.32
2023-05-23T12:12:01.331Z,16.52
2023-05-23T12:14:34.765Z,17.07
2023-05-23T12:17:06.899Z,17.06
2023-05-23T12:19:41.018Z,17.22
2023-05-23T12:22:13.235Z,17.25
2023-05-23T12:25:43.406Z,16.75
2023-05-23T12:28:16.314Z,16.98
2023-05-23T12:30:49.827Z,17.77
2023-05-23T12:33:22.086Z,18.36
2023-05-23T12:35:54.251Z,18.68
2023-05-23T12:38:29.097Z,18.41
2023-05-23T12:41:21.103Z,17.92
2023-05-23T12:43:55.263Z,17.50
2023-05-23T12:46:28.439Z,19.23
2023-05-23T12:49:00.624Z,19.29
2023-05-23T12:51:32.936Z,19.23
2023-05-23T12:54:05.253Z,20.58
2023-05-23T12:56:37.411Z,20.84
2023-05-23T12:59:09.643Z,20.76
2023-05-23T13:01:41.960Z,21.40
2023-05-23T13:04:14.289Z,22.60
2023-05-23T13:06:46.952Z,23.15
2023-05-23T13:09:19.274Z,21.96
2023-05-23T13:11:51.805Z,20.37
2023-05-23T13:19:47.169Z,19.25
2023-05-23T13:22:19.440Z,19.31
2023-05-23T13:25:14.704Z,18.66
2023-05-23T13:27:48.913Z,18.27
2023-05-23T13:30:23.240Z,17.83
2023-05-23T13:32:55.926Z,18.19
2023-05-23T13:35:28.529Z,18.42
2023-05-23T13:38:01.134Z,18.41
2023-05-23T13:40:33.427Z,18.60
2023-05-23T13:43:06.329Z,18.04
2023-05-23T13:45:39.190Z,17.72
2023-05-23T13:48:20.692Z,17.65
2023-05-23T13:52:20.728Z,17.86
2023-05-23T13:54:57.327Z,17.80
2023-05-23T13:57:29.662Z,17.47
2023-05-23T14:00:03.437Z,17.29
2023-05-23T14:02:37.728Z,17.06
2023-05-23T14:05:47.959Z,17.74
2023-05-23T14:08:20.600Z,17.46
2023-05-23T14:10:53.436Z,17.87
2023-05-23T14:13:25.864Z,18.80
2023-05-23T14:15:58.410Z,19.04
2023-05-23T14:18:30.835Z,18.71
2023-05-23T14:21:03.419Z,18.49
2023-05-23T14:23:35.555Z,18.47
2023-05-23T14:26:08.132Z,18.49
2023-05-23T14:28:40.657Z,18.06
2023-05-23T14:31:13.038Z,17.99
2023-05-23T14:34:12.126Z,17.37
2023-05-23T14:36:47.390Z,17.07
2023-05-23T14:39:19.557Z,16.69
2023-05-23T14:41:51.904Z,16.85
2023-05-23T14:44:24.876Z,17.36
2023-05-23T14:46:57.336Z,17.72
2023-05-23T14:49:32.761Z,17.95
2023-05-23T14:52:05.281Z,17.76
2023-05-23T14:54:37.527Z,17.64
2023-05-23T14:57:10.589Z,17.59
2023-05-23T14:59:46.787Z,17.52
2023-05-23T15:02:21.843Z,17.45
2023-05-23T15:04:56.521Z,17.47
2023-05-23T15:10:19.335Z,16.71
2023-05-23T15:12:52.118Z,16.72
2023-05-23T15:15:24.631Z,16.99
2023-05-23T15:18:39.419Z,16.88
2023-05-23T15:21:15.262Z,16.82
2023-05-23T15:23:47.628Z,17.04
2023-05-23T15:26:20.206Z,17.33
2023-05-23T15:28:52.433Z,17.39
2023-05-23T15:32:16.979Z,17.25
2023-05-23T15:34:51.314Z,17.16
2023-05-23T15:37:23.702Z,17.09
2023-05-23T15:40:16.238Z,16.92
2023-05-23T15:42:48.559Z,16.89
2023-05-23T15:45:20.878Z,16.57
2023-05-23T15:47:53.166Z,16.29
2023-05-23T15:50:28.356Z,16.29
2023-05-23T15:53:00.625Z,16.01
2023-05-23T15:55:33.152Z,16.13
2023-05-23T15:58:10.847Z,16.15
2023-05-23T16:00:50.856Z,16.34
2023-05-23T16:03:34.467Z,16.48
2023-05-23T16:06:28.679Z,16.67
2023-05-23T16:09:03.226Z,16.68
2023-05-23T16:11:35.732Z,16.43
2023-05-23T16:14:08.029Z,16.13
2023-05-23T16:20:32.516Z,15.74
2023-05-23T16:23:07.890Z,15.59
2023-05-23T16:25:40.212Z,15.55
2023-05-23T16:28:51.130Z,15.54
2023-05-23T16:31:28.125Z,15.66
2023-05-23T16:34:07.225Z,15.68
2023-05-23T16:36:39.487Z,15.79
2023-05-23T16:39:16.748Z,15.66
2023-05-23T16:42:16.910Z,15.21
2023-05-23T16:44:53.482Z,15.21
2023-05-23T16:47:41.937Z,15.47
2023-05-23T16:50:14.565Z,15.46
2023-05-23T16:52:46.763Z,15.48
2023-05-23T16:55:19.021Z,15.54
2023-05-23T16:57:51.164Z,15.68
2023-05-23T17:00:23.385Z,15.66
2023-05-23T17:02:55.969Z,15.48
2023-05-23T17:05:28.356Z,15.50
2023-05-23T17:08:00.693Z,15.24
2023-05-23T17:10:33.755Z,15.39
2023-05-23T17:13:06.042Z,15.17
2023-05-23T17:15:38.267Z,15.01
2023-05-23T17:18:10.635Z,14.73
2023-05-23T17:20:42.813Z,14.54
2023-05-23T17:23:14.944Z,14.36
2023-05-23T17:25:47.546Z,14.40
2023-05-23T17:28:19.713Z,14.41
2023-05-23T17:30:53.336Z,14.34
2023-05-23T17:33:25.555Z,14.56
2023-05-23T17:35:57.704Z,14.40
2023-05-23T17:38:29.934Z,14.28
2023-05-23T17:41:02.102Z,14.31
2023-05-23T17:43:35.877Z,14.45
2023-05-23T17:46:08.194Z,14.48
2023-05-23T17:48:47.525Z,14.39
2023-05-23T17:51:21.078Z,14.34
2023-05-23T17:53:54.060Z,14.27
2023-05-23T17:56:26.352Z,14.11
2023-05-23T17:58:58.763Z,14.01
2023-05-23T18:01:31.223Z,13.86
2023-05-23T18:04:03.579Z,13.97
2023-05-23T18:06:36.260Z,13.82
2023-05-23T18:09:09.955Z,13.77
2023-05-23T18:11:47.468Z,13.86
2023-05-23T18:14:19.951Z,13.87
2023-05-23T18:16:52.776Z,13.95
2023-05-23T18:19:26.476Z,13.99
2023-05-23T18:21:59.599Z,13.97
2023-05-23T18:24:31.871Z,13.88
2023-05-23T18:27:04.891Z,13.82
2023-05-23T18:29:37.453Z,13.79
2023-05-23T18:32:09.939Z,13.88
2023-05-23T18:34:42.602Z,13.92
2023-05-23T18:37:19.265Z,13.87
2023-05-23T18:39:51.675Z,13.82
2023-05-23T18:42:24.307Z,13.77
2023-05-23T18:44:56.603Z,13.56
2023-05-23T18:47:28.833Z,13.56
2023-05-23T18:50:01.481Z,13.45
2023-05-23T18:52:37.340Z,13.45
2023-05-23T18:55:14.724Z,13.43
2023-05-23T18:57:50.773Z,13.47
2023-05-23T19:00:22.981Z,13.38
2023-05-23T19:02:55.344Z,13.19
2023-05-23T19:05:27.755Z,13.26
2023-05-23T19:07:59.889Z,13.27
2023-05-23T19:10:32.051Z,13.13
2023-05-23T19:13:05.347Z,13.05
2023-05-23T19:15:38.055Z,13.11
2023-05-23T19:18:10.729Z,13.01
2023-05-23T19:20:43.500Z,13.01
2023-05-23T19:23:16.454Z,12.93
2023-05-23T19:25:48.728Z,12.77
2023-05-23T19:28:21.492Z,12.85
2023-05-23T19:30:53.648Z,12.81
2023-05-23T19:33:26.150Z,12.80
2023-05-23T19:35:59.383Z,12.86
2023-05-23T19:38:32.095Z,12.93
2023-05-23T19:41:05.169Z,12.89
2023-05-23T19:46:33.790Z,12.66
2023-05-23T19:51:28.788Z,12.63
2023-05-23T19:52:47.154Z,12.42
2023-05-23T19:55:39.225Z,12.46
2023-05-23T19:58:14.469Z,12.54
2023-05-23T20:01:17.685Z,12.50
2023-05-23T20:03:56.252Z,12.60
2023-05-23T20:06:28.903Z,12.45
2023-05-23T20:09:09.611Z,12.47
2023-05-23T20:11:47.162Z,12.53
2023-05-23T20:14:22.778Z,12.44
2023-05-23T20:16:59.120Z,12.48
2023-05-23T20:19:47.677Z,12.41
2023-05-23T20:22:20.072Z,12.32
2023-05-23T20:24:52.406Z,12.26
2023-05-23T20:27:24.874Z,12.28
2023-05-23T20:30:04.409Z,12.29
2023-05-23T20:32:37.286Z,12.17
2023-05-23T20:35:13.215Z,12.26
2023-05-23T20:37:49.345Z,12.31
2023-05-23T20:40:23.157Z,12.30
2023-05-23T20:43:04.851Z,12.31
2023-05-23T20:45:37.292Z,12.28
2023-05-23T20:48:09.675Z,12.27
2023-05-23T20:50:42.284Z,12.24
2023-05-23T20:53:14.995Z,12.20
2023-05-23T20:56:01.001Z,12.06
2023-05-23T20:58:34.059Z,12.02
2023-05-23T21:01:06.649Z,12.06
2023-05-23T21:03:39.792Z,12.09
2023-05-23T21:06:12.211Z,11.99
2023-05-23T21:08:50.464Z,11.96
2023-05-23T21:11:26.467Z,11.94
2023-05-23T21:13:59.039Z,11.91
2023-05-23T21:16:33.237Z,11.89
2023-05-23T21:19:06.001Z,11.90
2023-05-23T21:21:38.572Z,11.86
2023-05-23T21:24:10.797Z,11.91
2023-05-23T21:26:43.763Z,11.86
2023-05-23T21:29:16.243Z,11.87
2023-05-23T21:31:48.633Z,11.88
2023-05-23T21:34:24.185Z,11.88
2023-05-23T21:36:56.941Z,11.75
2023-05-23T21:39:39.252Z,11.78
2023-05-23T21:42:20.256Z,11.69
2023-05-23T21:44:52.485Z,11.63
2023-05-23T21:47:25.313Z,11.64
2023-05-23T21:49:57.754Z,11.58
2023-05-23T21:52:30.881Z,11.67
2023-05-23T21:55:06.468Z,11.58
2023-05-23T21:57:38.864Z,11.58
2023-05-23T22:00:15.607Z,11.61
2023-05-23T22:02:48.693Z,11.62
2023-05-23T22:05:21.261Z,11.60
2023-05-23T22:07:53.530Z,11.61
2023-05-23T22:10:25.832Z,11.55
2023-05-23T22:12:58.601Z,11.50
2023-05-23T22:15:32.732Z,11.56
2023-05-23T22:18:05.216Z,11.58
2023-05-23T22:20:39.319Z,11.51
2023-05-23T22:23:17.002Z,11.54
2023-05-23T22:25:49.415Z,11.48
2023-05-23T22:28:21.830Z,11.47
2023-05-23T22:30:54.259Z,11.43
2023-05-23T22:33:28.841Z,11.30
2023-05-23T22:36:46.423Z,11.30
2023-05-23T22:40:07.611Z,11.31
2023-05-23T22:42:47.402Z,11.29
2023-05-23T22:52:35.920Z,11.31
2023-05-23T22:55:09.965Z,11.28
2023-05-23T22:57:43.948Z,11.36
2023-05-23T23:00:16.572Z,11.39
2023-05-23T23:02:49.029Z,11.36
2023-05-23T23:05:22.325Z,11.33
2023-05-23T23:07:54.756Z,11.39
2023-05-23T23:10:27.057Z,11.30
2023-05-23T23:12:59.241Z,11.40
2023-05-23T23:15:34.076Z,11.33
2023-05-23T23:18:06.909Z,11.33
2023-05-23T23:20:39.461Z,11.34
2023-05-23T23:23:18.992Z,11.26
2023-05-23T23:25:52.495Z,11.24
2023-05-23T23:28:24.936Z,11.16
2023-05-23T23:30:57.138Z,11.16
2023-05-23T23:33:29.597Z,11.18
2023-05-23T23:36:01.775Z,11.21
2023-05-23T23:38:34.167Z,11.20
2023-05-23T23:41:06.395Z,11.23
2023-05-23T23:43:38.606Z,11.10
2023-05-23T23:46:11.463Z,11.11
2023-05-23T23:48:44.977Z,11.04
2023-05-23T23:51:17.306Z,11.00
2023-05-23T23:53:52.425Z,11.00
2023-05-23T23:56:26.382Z,11.00
2023-05-23T23:58:58.545Z,10.99
